Time;durP1;ratioP1;P1;durP2;ratioP2;P2;SDS_P1;SDS_P2;PMS_P1;PMS_P2;Temp;Humidity;BMP_temperature;BMP_pressure;BME280_temperature;BME280_humidity;BME280_pressure;Samples;Min_cycle;Max_cycle;Signal;HPM_P1;HPM_P2
2023/01/16 00:04:27;;;;;;;17.40;12.43;;;7.30;89.50;;;;;;10778865;33;20034;-76
2023/01/16 00:10:29;;;;;;;18.83;14.32;;;7.20;89.50;;;;;;10778170;33;20422;-76
2023/01/16 00:16:31;;;;;;;19.52;14.55;;;7.20;89.40;;;;;;10791564;33;20039;-75
2023/01/16 00:22:33;;;;;;;16.23;12.87;;;7.20;89.40;;;;;;10398842;27;11949051;-75
2023/01/16 00:28:38;;;;;;;19.23;13.57;;;7.20;89.40;;;;;;10715739;33;20033;-75
2023/01/16 00:34:40;;;;;;;18.10;12.82;;;7.20;89.40;;;;;;10714895;33;20025;-75
2023/01/16 00:40:42;;;;;;;18.77;15.25;;;7.20;89.40;;;;;;10702036;33;20339;-75
2023/01/16 00:46:45;;;;;;;16.75;11.73;;;7.20;89.30;;;;;;10716354;33;20051;-75
2023/01/16 00:52:47;;;;;;;16.65;11.70;;;7.20;89.30;;;;;;10741058;33;20347;-76
2023/01/16 00:58:48;;;;;;;11.38;8.65;;;7.30;89.30;;;;;;10753549;33;20391;-76
2023/01/16 01:04:50;;;;;;;11.55;8.95;;;7.30;89.30;;;;;;10753535;33;20028;-76
2023/01/16 01:10:52;;;;;;;18.30;11.00;;;7.30;89.20;;;;;;10753130;33;20024;-75
2023/01/16 01:16:54;;;;;;;13.20;9.18;;;7.30;89.20;;;;;;10753268;33;20017;-75
2023/01/16 01:22:56;;;;;;;14.68;9.52;;;7.40;89.20;;;;;;10753128;33;20017;-75
2023/01/16 01:28:58;;;;;;;11.10;7.32;;;7.40;89.20;;;;;;10752929;33;20050;-76
2023/01/16 01:35:00;;;;;;;15.48;10.10;;;7.40;89.10;;;;;;10752786;33;20045;-76
2023/01/16 01:41:43;;;;;;;13.02;8.30;;;7.40;89.20;;;;;;10752645;33;20017;-76
2023/01/16 01:47:54;;;;;;;12.15;7.90;;;7.40;89.10;;;;;;10751714;33;20016;-76
2023/01/16 01:54:02;;;;;;;13.13;7.72;;;7.40;89.10;;;;;;10752211;33;20024;-76
2023/01/16 02:00:10;;;;;;;12.37;8.20;;;7.40;89.10;;;;;;10752061;33;20013;-76
2023/01/16 02:06:19;;;;;;;15.47;10.47;;;7.40;89.10;;;;;;10739028;33;20044;-76
2023/01/16 02:12:20;;;;;;;13.52;9.65;;;7.40;89.10;;;;;;10751727;33;20539;-76
2023/01/16 02:25:00;;;;;;;12.52;8.88;;;7.30;89.00;;;;;;10751497;33;20021;-76
2023/01/16 02:31:26;;;;;;;16.33;13.73;;;7.30;89.00;;;;;;10750219;33;20028;-76
2023/01/16 02:38:01;;;;;;;17.52;12.55;;;7.30;89.00;;;;;;10751272;33;20029;-76
2023/01/16 02:44:26;;;;;;;19.17;15.02;;;7.20;89.00;;;;;;10751080;33;20017;-76
2023/01/16 02:50:49;;;;;;;21.30;17.05;;;7.20;89.00;;;;;;10750923;33;20020;-76
2023/01/16 02:56:59;;;;;;;19.25;13.48;;;7.20;89.00;;;;;;10751311;33;20024;-76
2023/01/16 03:03:01;;;;;;;;;;;7.20;89.10;;;;;;10753762;33;20025;-76
2023/01/16 03:09:35;;;;;;;23.08;19.20;;;7.30;89.20;;;;;;10756147;33;19950;-76
2023/01/16 03:15:58;;;;;;;16.08;11.23;;;7.20;89.10;;;;;;10760001;33;20021;-76
2023/01/16 03:22:30;;;;;;;18.33;12.37;;;7.20;89.30;;;;;;10758658;33;20051;-76
2023/01/16 03:28:58;;;;;;;12.75;9.20;;;7.30;89.10;;;;;;10754489;33;20033;-75
2023/01/16 03:35:13;;;;;;;15.15;10.38;;;7.30;89.10;;;;;;10758342;33;20395;-75
2023/01/16 03:41:20;;;;;;;18.67;12.40;;;7.30;89.20;;;;;;10758080;33;20043;-75
2023/01/16 03:47:34;;;;;;;11.25;7.82;;;7.70;89.40;;;;;;10758763;33;20047;-75
2023/01/16 03:54:01;;;;;;;12.98;9.43;;;8.00;88.90;;;;;;10756823;33;20059;-75
2023/01/16 04:00:05;;;;;;;10.32;7.62;;;7.80;88.70;;;;;;10758288;33;20048;-75
2023/01/16 04:06:39;;;;;;;10.77;6.37;;;7.70;88.90;;;;;;10757168;33;20013;-75
2023/01/16 04:12:55;;;;;;;11.12;6.45;;;7.70;89.00;;;;;;10756163;33;20024;-75
2023/01/16 04:18:59;;;;;;;12.30;7.25;;;7.60;89.10;;;;;;10742827;33;20028;-75
2023/01/16 04:25:05;;;;;;;13.05;9.85;;;7.70;89.20;;;;;;10756408;33;20020;-75
2023/01/16 04:31:07;;;;;;;14.30;10.73;;;7.90;89.40;;;;;;10757168;33;20017;-75
2023/01/16 04:37:13;;;;;;;19.65;14.93;;;8.30;89.20;;;;;;10740422;33;20067;-75
2023/01/16 04:43:24;;;;;;;13.57;9.88;;;8.70;89.00;;;;;;10754338;33;20024;-75
2023/01/16 04:49:33;;;;;;;15.20;10.43;;;8.90;88.70;;;;;;10743507;33;20021;-75
2023/01/16 04:55:35;;;;;;;24.40;17.23;;;9.00;88.60;;;;;;10754091;33;20013;-75
2023/01/16 05:01:37;;;;;;;13.13;10.23;;;9.00;88.80;;;;;;10740988;33;20039;-76
2023/01/16 05:14:15;;;;;;;20.12;13.75;;;9.00;88.40;;;;;;10753411;33;20028;-75
2023/01/16 05:20:17;;;;;;;20.08;15.02;;;8.80;88.90;;;;;;10753311;33;20039;-75
2023/01/16 05:26:19;;;;;;;17.80;14.65;;;8.80;89.00;;;;;;10753155;33;20082;-75
2023/01/16 05:32:23;;;;;;;19.60;16.12;;;9.10;88.90;;;;;;10752895;33;20016;-75
2023/01/16 05:38:25;;;;;;;13.85;11.65;;;9.20;88.70;;;;;;10739860;33;20044;-75
2023/01/16 05:44:27;;;;;;;24.92;18.62;;;9.00;88.70;;;;;;10752568;33;20021;-75
2023/01/16 05:50:29;;;;;;;15.18;11.52;;;8.80;89.00;;;;;;10724101;32;20094;-75
2023/01/16 05:56:31;;;;;;;13.80;9.85;;;8.80;89.50;;;;;;10752363;33;20421;-75
2023/01/16 06:02:33;;;;;;;17.33;12.95;;;9.20;89.20;;;;;;10752108;33;20403;-75
2023/01/16 06:08:35;;;;;;;17.50;13.27;;;9.40;88.80;;;;;;10747795;33;20043;-75
2023/01/16 06:14:37;;;;;;;21.87;13.88;;;9.50;88.60;;;;;;10751786;33;20017;-75
2023/01/16 06:20:39;;;;;;;14.75;10.45;;;9.60;88.50;;;;;;10751708;33;20060;-75
2023/01/16 06:26:41;;;;;;;20.37;14.98;;;9.60;88.50;;;;;;10751255;33;20028;-75
2023/01/16 06:32:44;;;;;;;23.58;14.30;;;9.70;88.50;;;;;;10738384;33;20029;-75
2023/01/16 06:38:46;;;;;;;12.00;7.53;;;9.70;88.30;;;;;;10751040;33;20035;-75
2023/01/16 06:44:48;;;;;;;19.75;14.25;;;9.40;88.10;;;;;;10750906;33;20031;-75
2023/01/16 06:50:51;;;;;;;22.37;14.23;;;9.30;88.70;;;;;;10750799;33;20052;-75
2023/01/16 06:56:53;;;;;;;18.00;10.80;;;9.50;88.60;;;;;;10750652;33;20387;-75
2023/01/16 07:02:56;;;;;;;18.50;12.70;;;9.60;88.20;;;;;;10750416;33;20028;-74
2023/01/16 07:08:58;;;;;;;12.68;8.88;;;9.20;88.00;;;;;;10737184;33;20346;-74
2023/01/16 07:27:49;;;;;;;14.60;10.15;;;8.90;89.00;;;;;;10750050;33;20021;-74
2023/01/16 07:33:51;;;;;;;15.82;10.88;;;9.00;88.60;;;;;;10732676;33;20346;-74
2023/01/16 07:39:53;;;;;;;19.35;14.65;;;8.90;88.70;;;;;;10747730;33;20055;-74
2023/01/16 07:45:55;;;;;;;14.40;11.30;;;9.00;88.90;;;;;;10740124;33;20013;-72
2023/01/16 07:51:57;;;;;;;20.62;13.55;;;9.20;88.80;;;;;;10753240;33;20067;-72
2023/01/16 07:57:59;;;;;;;20.15;14.45;;;9.20;88.70;;;;;;10752249;33;20025;-72
2023/01/16 08:04:01;;;;;;;19.37;13.70;;;9.70;88.50;;;;;;10742305;33;20433;-72
2023/01/16 08:10:05;;;;;;;15.43;11.80;;;9.90;88.20;;;;;;10755870;33;20386;-72
2023/01/16 08:16:07;;;;;;;11.35;8.25;;;10.20;88.00;;;;;;10741867;33;20043;-72
2023/01/16 08:22:09;;;;;;;10.50;7.70;;;10.30;87.70;;;;;;10769021;27;20032;-72
2023/01/16 08:28:11;;;;;;;13.50;8.60;;;10.20;87.50;;;;;;10777753;33;20446;-73
2023/01/16 08:34:13;;;;;;;9.30;7.28;;;10.10;87.90;;;;;;10791060;33;20051;-73
2023/01/16 08:40:15;;;;;;;13.43;9.85;;;10.20;88.10;;;;;;10791110;33;20024;-73
2023/01/16 08:52:42;;;;;;;8.57;5.22;;;10.40;88.00;;;;;;10777954;33;20094;-72
2023/01/16 08:58:44;;;;;;;8.15;5.65;;;10.40;87.90;;;;;;10789068;33;20036;-73
2023/01/16 09:04:47;;;;;;;8.27;4.50;;;10.40;88.30;;;;;;10790277;33;20028;-73
2023/01/16 09:17:10;;;;;;;5.97;3.80;;;10.90;87.90;;;;;;10791053;33;20025;-73
2023/01/16 09:23:11;;;;;;;6.62;3.70;;;10.70;87.70;;;;;;10789629;33;20060;-73
2023/01/16 09:29:13;;;;;;;5.65;3.62;;;10.80;88.30;;;;;;10789565;33;20346;-73
2023/01/16 09:35:16;;;;;;;6.47;4.20;;;11.20;87.90;;;;;;10788096;33;20291;-73
2023/01/16 09:47:44;;;;;;;3.83;2.70;;;11.20;87.40;;;;;;10789060;33;20044;-73
2023/01/16 10:00:21;;;;;;;9.77;4.07;;;10.70;88.50;;;;;;10775440;33;20062;-73
2023/01/16 10:06:52;;;;;;;3.90;2.12;;;10.60;88.60;;;;;;10787842;33;20021;-73
2023/01/16 10:13:21;;;;;;;3.08;1.80;;;10.70;88.90;;;;;;10788281;33;20024;-73
2023/01/16 10:19:39;;;;;;;3.90;1.97;;;10.70;88.90;;;;;;10775042;32;20392;-73
2023/01/16 10:25:54;;;;;;;3.05;1.60;;;10.70;89.10;;;;;;10786052;33;20039;-73
2023/01/16 10:32:11;;;;;;;2.70;1.67;;;10.70;88.50;;;;;;10784059;33;20046;-73
2023/01/16 10:38:43;;;;;;;4.00;2.17;;;10.70;89.20;;;;;;10787810;33;20008;-73
2023/01/16 10:51:41;;;;;;;3.00;1.73;;;10.70;88.40;;;;;;10774002;33;20055;-73
2023/01/16 10:57:56;;;;;;;3.40;1.75;;;10.70;88.70;;;;;;10787188;33;20016;-73
2023/01/16 11:04:00;;;;;;;1.77;1.27;;;10.70;88.80;;;;;;10774060;33;20008;-73
2023/01/16 11:10:03;;;;;;;1.92;1.40;;;10.80;88.80;;;;;;10786795;33;20068;-73
2023/01/16 11:22:40;;;;;;;2.62;1.52;;;10.70;88.70;;;;;;10792311;33;20046;-73
2023/01/16 11:28:47;;;;;;;3.70;1.12;;;10.70;89.20;;;;;;10792947;33;20049;-73
2023/01/16 11:34:49;;;;;;;4.10;1.75;;;10.90;89.10;;;;;;10790924;33;20032;-73
2023/01/16 11:40:59;;;;;;;1.85;1.40;;;11.30;88.50;;;;;;10792706;33;20039;-73
2023/01/16 11:47:01;;;;;;;1.20;0.80;;;11.40;88.20;;;;;;10792595;33;20016;-73
2023/01/16 11:53:03;;;;;;;3.65;2.45;;;11.20;88.80;;;;;;10792361;33;20024;-73
2023/01/16 11:59:28;;;;;;;2.80;1.42;;;11.30;88.90;;;;;;10792122;33;20028;-73
2023/01/16 12:05:57;;;;;;;3.70;1.80;;;11.40;88.60;;;;;;10792365;33;20012;-73
2023/01/16 12:18:47;;;;;;;2.03;1.20;;;11.30;88.70;;;;;;10605592;33;20439;-73
2023/01/16 12:24:56;;;;;;;2.67;1.20;;;11.30;88.90;;;;;;10602685;33;20356;-73
2023/01/16 12:31:07;;;;;;;;;;;11.30;88.80;;;;;;10603249;33;20072;-73
2023/01/16 12:37:21;;;;;;;1.55;1.00;;;11.20;88.30;;;;;;10606600;33;19953;-73
2023/01/16 12:43:47;;;;;;;1.02;0.80;;;11.00;88.40;;;;;;10592594;33;20038;-73
2023/01/16 12:49:49;;;;;;;2.05;1.50;;;10.90;88.30;;;;;;10778773;33;20063;-73
2023/01/16 12:56:00;;;;;;;2.90;0.98;;;10.90;88.20;;;;;;10790329;33;20035;-73
2023/01/16 13:02:41;;;;;;;1.83;1.02;;;10.90;88.50;;;;;;10789968;33;20059;-73
2023/01/16 13:08:58;;;;;;;4.30;1.65;;;11.10;88.20;;;;;;10603276;33;20137;-73
2023/01/16 13:15:09;;;;;;;1.83;0.90;;;11.20;88.60;;;;;;10601456;33;20385;-73
2023/01/16 13:21:18;;;;;;;9.25;1.30;;;11.30;88.50;;;;;;10604527;33;20029;-74
2023/01/16 13:27:47;;;;;;;1.37;1.08;;;11.40;88.20;;;;;;10604166;33;20061;-73
2023/01/16 13:33:54;;;;;;;1.23;0.80;;;11.60;88.40;;;;;;10603055;33;20037;-73
2023/01/16 13:40:14;;;;;;;2.90;1.55;;;11.60;88.20;;;;;;10603480;33;20026;-73
2023/01/16 13:46:17;;;;;;;3.22;1.40;;;11.40;88.10;;;;;;10748897;33;20028;-73
2023/01/16 13:52:24;;;;;;;1.92;1.02;;;11.20;88.40;;;;;;10785665;33;20151;-73
2023/01/16 13:58:27;;;;;;;1.60;1.00;;;11.40;88.80;;;;;;10788620;33;20046;-73
2023/01/16 14:04:32;;;;;;;5.12;2.80;;;11.60;88.60;;;;;;10775193;33;20032;-73
2023/01/16 14:10:55;;;;;;;2.50;1.33;;;11.70;87.80;;;;;;10762811;33;20024;-73
2023/01/16 14:17:01;;;;;;;3.50;1.92;;;11.40;88.30;;;;;;10774679;33;20398;-77
2023/01/16 14:29:32;;;;;;;3.42;1.90;;;11.50;88.40;;;;;;10770032;33;20403;-77
2023/01/16 14:36:00;;;;;;;4.12;2.40;;;11.40;87.90;;;;;;10751483;33;20017;-76
2023/01/16 14:55:14;;;;;;;3.35;1.80;;;11.70;88.00;;;;;;10753678;33;20025;-77
2023/01/16 15:07:53;;;;;;;2.45;1.52;;;11.30;88.20;;;;;;10792242;33;20020;-77
2023/01/16 15:14:28;;;;;;;3.08;1.73;;;11.30;88.60;;;;;;10793416;33;20020;-76
2023/01/16 15:27:19;;;;;;;2.25;1.77;;;11.70;88.60;;;;;;10793211;33;20013;-76
2023/01/16 15:39:48;;;;;;;4.03;2.35;;;12.00;88.30;;;;;;10793476;33;20043;-76
2023/01/16 15:52:33;;;;;;;4.33;2.43;;;12.00;88.20;;;;;;10792447;33;20398;-76
2023/01/16 15:58:35;;;;;;;3.62;2.22;;;11.80;88.00;;;;;;10792233;33;20021;-76
2023/01/16 16:04:38;;;;;;;3.40;1.98;;;11.80;88.10;;;;;;10791337;33;20020;-76
2023/01/16 16:23:38;;;;;;;7.95;4.75;;;11.70;87.90;;;;;;10795642;27;20024;-76
2023/01/16 16:29:40;;;;;;;5.37;3.65;;;11.60;88.10;;;;;;10791348;33;20024;-76
2023/01/16 16:35:51;;;;;;;7.20;3.30;;;11.50;88.00;;;;;;10791150;33;20438;-76
2023/01/16 16:48:31;;;;;;;7.07;4.15;;;11.50;87.80;;;;;;10755059;33;20016;-76
2023/01/16 16:54:33;;;;;;;5.72;3.78;;;11.50;88.00;;;;;;10740871;33;20054;-75
2023/01/16 17:00:35;;;;;;;7.05;4.40;;;11.60;88.30;;;;;;10753869;33;20051;-77
2023/01/16 17:06:38;;;;;;;10.30;6.28;;;11.60;88.00;;;;;;10740519;32;20437;-78
2023/01/16 17:12:40;;;;;;;4.22;3.15;;;11.20;88.10;;;;;;10753576;33;20354;-77
2023/01/16 17:18:43;;;;;;;8.55;3.70;;;10.80;88.40;;;;;;10752917;33;20406;-79
2023/01/16 17:24:45;;;;;;;8.15;3.97;;;10.70;88.90;;;;;;10753412;33;20021;-78
2023/01/16 17:30:48;;;;;;;6.50;4.65;;;10.90;88.80;;;;;;10751479;33;20055;-78
2023/01/16 17:36:50;;;;;;;6.32;3.65;;;10.90;88.30;;;;;;10753081;33;20047;-78
2023/01/16 17:49:13;;;;;;;7.93;5.47;;;10.40;88.30;;;;;;10752667;33;20113;-77
2023/01/16 18:01:36;;;;;;;7.70;5.45;;;10.70;88.80;;;;;;10750064;33;20024;-77
2023/01/16 18:07:38;;;;;;;9.65;5.85;;;10.70;88.80;;;;;;10752831;33;20051;-78
2023/01/16 18:20:01;;;;;;;8.77;5.62;;;10.70;89.00;;;;;;10751718;33;20339;-77
2023/01/16 18:26:03;;;;;;;7.93;5.22;;;10.70;88.70;;;;;;10738298;32;20055;-76
2023/01/16 19:03:59;;;;;;;6.43;4.78;;;10.30;88.90;;;;;;10747759;33;20021;-72
2023/01/16 19:10:04;;;;;;;7.25;5.47;;;10.40;89.00;;;;;;10725276;33;20544;-72
2023/01/16 19:22:27;;;;;;;7.45;5.65;;;10.40;88.40;;;;;;10746218;33;20430;-72
2023/01/16 19:28:29;;;;;;;8.38;4.80;;;10.20;88.80;;;;;;10745968;33;20048;-73
2023/01/16 19:34:35;;;;;;;8.90;5.45;;;10.30;88.70;;;;;;10747710;33;20512;-73
2023/01/16 19:40:37;;;;;;;6.15;3.97;;;10.40;88.50;;;;;;10752142;33;20043;-73
2023/01/16 19:46:42;;;;;;;6.82;5.00;;;10.50;88.30;;;;;;10755731;33;20051;-72
2023/01/16 19:52:44;;;;;;;7.93;6.10;;;10.30;88.00;;;;;;10755552;33;20016;-72
2023/01/16 19:58:46;;;;;;;8.15;5.53;;;10.40;88.00;;;;;;10755490;33;20059;-73
2023/01/16 20:04:48;;;;;;;6.30;4.18;;;10.40;87.80;;;;;;10755389;33;20402;-73
2023/01/16 20:10:53;;;;;;;7.15;4.55;;;10.20;87.50;;;;;;10755214;33;20051;-72
2023/01/16 20:16:58;;;;;;;6.05;4.37;;;10.10;87.60;;;;;;10742135;33;20025;-72
2023/01/16 20:23:01;;;;;;;7.15;4.50;;;10.00;87.20;;;;;;10755109;33;20048;-73
2023/01/16 20:29:03;;;;;;;7.35;4.90;;;9.90;87.20;;;;;;10739937;33;20441;-72
2023/01/16 20:35:05;;;;;;;8.02;5.62;;;9.70;87.30;;;;;;10754371;33;20051;-73
2023/01/16 20:47:39;;;;;;;8.93;5.90;;;9.90;87.10;;;;;;10737866;33;20040;-76
2023/01/16 20:53:41;;;;;;;9.93;6.85;;;9.70;86.70;;;;;;10753710;33;20038;-76
2023/01/16 20:59:43;;;;;;;9.23;6.78;;;9.50;87.10;;;;;;10754075;33;20029;-76
2023/01/16 21:05:47;;;;;;;9.85;7.07;;;9.50;86.80;;;;;;10736446;33;20036;-76
2023/01/16 21:24:31;;;;;;;10.55;7.40;;;9.50;86.40;;;;;;10753383;33;20047;-76
2023/01/16 21:30:33;;;;;;;9.30;5.90;;;9.10;86.10;;;;;;10740189;33;20029;-72
2023/01/16 21:36:35;;;;;;;9.38;6.53;;;8.70;86.50;;;;;;10753073;33;20332;-72
2023/01/16 21:48:59;;;;;;;10.00;6.60;;;8.30;87.20;;;;;;10753037;33;20051;-72
2023/01/16 21:55:26;;;;;;;8.75;5.75;;;8.30;87.00;;;;;;10752515;33;20029;-72
2023/01/16 22:01:28;;;;;;;8.70;5.60;;;8.20;87.10;;;;;;10751434;33;20024;-72
2023/01/16 22:07:30;;;;;;;9.85;6.03;;;8.20;87.10;;;;;;10750146;33;20035;-72
2023/01/16 22:20:11;;;;;;;9.40;6.30;;;8.00;87.00;;;;;;10751800;33;20043;-72
2023/01/16 22:26:13;;;;;;;8.32;6.07;;;7.90;87.30;;;;;;10755077;33;20391;-72
2023/01/16 22:32:15;;;;;;;15.65;12.43;;;8.20;87.30;;;;;;10788194;33;20337;-72
2023/01/16 22:38:17;;;;;;;11.48;8.00;;;8.50;86.70;;;;;;10788017;33;20038;-72
2023/01/16 22:50:39;;;;;;;9.77;6.93;;;8.80;86.40;;;;;;10787623;33;20029;-72
2023/01/16 22:56:42;;;;;;;13.98;10.52;;;8.30;86.50;;;;;;10774408;33;20042;-72
2023/01/16 23:02:44;;;;;;;9.73;6.57;;;8.20;87.10;;;;;;10787391;33;20028;-72
2023/01/16 23:08:46;;;;;;;13.25;7.75;;;8.10;86.30;;;;;;10787324;33;20398;-72
2023/01/16 23:14:48;;;;;;;11.73;8.85;;;7.80;86.60;;;;;;10788571;33;20028;-72
2023/01/16 23:20:56;;;;;;;10.57;8.57;;;7.90;87.10;;;;;;10791302;33;20028;-72
2023/01/16 23:27:02;;;;;;;11.57;9.02;;;8.30;86.80;;;;;;10779815;33;20040;-72
2023/01/16 23:33:06;;;;;;;11.25;8.85;;;8.40;87.00;;;;;;10792952;33;20028;-72
2023/01/16 23:39:12;;;;;;;11.12;8.68;;;8.10;86.80;;;;;;10781045;33;20050;-72
2023/01/16 23:45:14;;;;;;;10.48;8.00;;;8.20;86.60;;;;;;10779681;33;20047;-72
2023/01/16 23:51:20;;;;;;;9.95;7.75;;;7.90;86.60;;;;;;10779017;33;20040;-72
2023/01/16 23:57:24;;;;;;;8.50;6.68;;;7.60;86.70;;;;;;10792466;33;20468;-72
